Back to Top

Language: 

My Weather Underground Personal Weather Station Historical Data with Graphs...

Delerius Weather Station Historical Data
Daily Summary for December 22, 2017 Units:  Metric    English   Both
« Previous Day
Next Day »
Daily Weekly Monthly Yearly Custom
  High: Low: Average:
Temperature: 12.8 °C 7.1 °C 9.1 °C
Dew Point: 10.2 °C 6.4 °C 8 °C
Humidity: 97 % 83 % 93 %
Wind Speed: 22.5 km/h 0 km/h 5.1 km/h
Wind Gust: 32.2 km/h - -
Wind:- - West
Pressure: 1035.1 hPa 1032.1 hPa -
Precipitation: 0 mm    
Historical Graphs
 
 
Tabular Data for December 22, 2017
Time Temperature Dew Point Pressure Wind Wind Speed Wind Gust Humidity Rainfall Rate (Hourly) solar Conditions
00:00 9.2 °C 8.1 °C 1032.1 hPa WNW 3.2 km/h 9.7 km/h 93 % 0 mm 0 W/m2
00:05 9.2 °C 8.1 °C 1032.1 hPa WNW 3.2 km/h 6.4 km/h 93 % 0 mm 0 W/m2
00:10 9.1 °C 8 °C 1032.1 hPa WNW 3.2 km/h 9.7 km/h 93 % 0 mm 0 W/m2
00:14 9.1 °C 8 °C 1032.1 hPa West 4.8 km/h 8 km/h 93 % 0 mm 0 W/m2
00:16 9.1 °C 8.2 °C 1032.1 hPa West 1.6 km/h 6.4 km/h 94 % 0 mm 0 W/m2
00:22 9.1 °C 8 °C 1032.1 hPa WNW 1.6 km/h 6.4 km/h 93 % 0 mm 0 W/m2
00:27 9.1 °C 8 °C 1032.1 hPa WNW 3.2 km/h 8 km/h 93 % 0 mm 0 W/m2
00:32 9 °C 8.1 °C 1032.1 hPa Calm   3.2 km/h 94 % 0 mm 0 W/m2
00:37 9 °C 8.1 °C 1032.1 hPa Calm     94 % 0 mm 0 W/m2
00:39 9 °C 7.9 °C 1032.1 hPa Calm   3.2 km/h 93 % 0 mm 0 W/m2
00:40 9 °C 7.9 °C 1032.1 hPa Calm   3.2 km/h 93 % 0 mm 0 W/m2
00:45 8.9 °C 7.8 °C 1032.1 hPa Calm     93 % 0 mm 0 W/m2
00:48 8.9 °C 7.8 °C 1032.1 hPa Calm   3.2 km/h 93 % 0 mm 0 W/m2
00:51 8.9 °C 7.8 °C 1032.1 hPa WNW 1.6 km/h 8 km/h 93 % 0 mm 0 W/m2
00:59 8.8 °C 7.7 °C 1032.1 hPa Calm   6.4 km/h 93 % 0 mm 0 W/m2
01:01 8.7 °C 7.6 °C 1032.1 hPa WNW 1.6 km/h 6.4 km/h 93 % 0 mm 0 W/m2
01:06 8.7 °C 7.6 °C 1032.1 hPa WNW 4.8 km/h 8 km/h 93 % 0 mm 0 W/m2
01:07 8.7 °C 7.8 °C 1032.1 hPa WNW 3.2 km/h 8 km/h 94 % 0 mm 0 W/m2
01:10 8.7 °C 7.8 °C 1032.1 hPa WSW 6.4 km/h 9.7 km/h 94 % 0 mm 0 W/m2
01:14 8.7 °C 7.8 °C 1032.1 hPa WSW 6.4 km/h 9.7 km/h 94 % 0 mm 0 W/m2
01:16 8.7 °C 7.8 °C 1032.1 hPa WSW 8 km/h 9.7 km/h 94 % 0 mm 0 W/m2
01:20 8.7 °C 7.8 °C 1032.1 hPa WSW 8 km/h 12.9 km/h 94 % 0 mm 0 W/m2
01:21 8.7 °C 7.8 °C 1032.1 hPa West 8 km/h 12.9 km/h 94 % 0 mm 0 W/m2
01:26 8.7 °C 7.8 °C 1032.1 hPa West 9.7 km/h 12.9 km/h 94 % 0 mm 0 W/m2
01:28 8.7 °C 7.8 °C 1032.1 hPa WSW 9.7 km/h 16.1 km/h 94 % 0 mm 0 W/m2
01:37 8.8 °C 7.9 °C 1032.1 hPa West 9.7 km/h 14.5 km/h 94 % 0 mm 0 W/m2
01:38 8.8 °C 7.9 °C 1032.1 hPa West 8 km/h 12.9 km/h 94 % 0 mm 0 W/m2
01:43 8.8 °C 7.9 °C 1032.1 hPa West 6.4 km/h 9.7 km/h 94 % 0 mm 0 W/m2
01:44 8.8 °C 7.9 °C 1032.1 hPa West 6.4 km/h 9.7 km/h 94 % 0 mm 0 W/m2
01:45 8.8 °C 7.9 °C 1032.1 hPa WNW 4.8 km/h 9.7 km/h 94 % 0 mm 0 W/m2
01:50 8.7 °C 7.8 °C 1032.1 hPa WNW 6.4 km/h 9.7 km/h 94 % 0 mm 0 W/m2
01:55 8.7 °C 7.8 °C 1032.1 hPa WNW 9.7 km/h 12.9 km/h 94 % 0 mm 0 W/m2
01:56 8.7 °C 7.8 °C 1032.1 hPa WNW 9.7 km/h 12.9 km/h 94 % 0 mm 0 W/m2
02:00 8.7 °C 7.8 °C 1032.1 hPa WNW 8 km/h 11.3 km/h 94 % 0 mm 0 W/m2
02:03 8.6 °C 7.7 °C 1032.1 hPa WNW 8 km/h 11.3 km/h 94 % 0 mm 0 W/m2
02:06 8.6 °C 7.7 °C 1032.1 hPa West 8 km/h 11.3 km/h 94 % 0 mm 0 W/m2
02:11 8.7 °C 7.8 °C 1032.1 hPa West 9.7 km/h 11.3 km/h 94 % 0 mm 0 W/m2
02:12 8.7 °C 7.8 °C 1032.1 hPa West 9.7 km/h 12.9 km/h 94 % 0 mm 0 W/m2
02:17 8.7 °C 7.9 °C 1032.1 hPa WNW 9.7 km/h 12.9 km/h 95 % 0 mm 0 W/m2
02:19 8.7 °C 7.9 °C 1032.1 hPa WNW 9.7 km/h 14.5 km/h 95 % 0 mm 0 W/m2
02:24 8.8 °C 8.1 °C 1032.1 hPa WNW 9.7 km/h 12.9 km/h 95 % 0 mm 0 W/m2
02:29 8.8 °C 8.1 °C 1032.1 hPa WNW 9.7 km/h 12.9 km/h 95 % 0 mm 0 W/m2
02:34 8.8 °C 8.1 °C 1032.1 hPa WNW 9.7 km/h 14.5 km/h 95 % 0 mm 0 W/m2
02:35 8.8 °C 8.1 °C 1032.1 hPa WNW 8 km/h 12.9 km/h 95 % 0 mm 0 W/m2
02:39 8.8 °C 8.1 °C 1032.1 hPa WNW 8 km/h 11.3 km/h 95 % 0 mm 0 W/m2
02:42 8.8 °C 8.1 °C 1032.1 hPa WNW 8 km/h 11.3 km/h 95 % 0 mm 0 W/m2
02:47 8.8 °C 8.1 °C 1032.1 hPa NW 8 km/h 11.3 km/h 95 % 0 mm 0 W/m2
02:48 8.8 °C 8.1 °C 1032.1 hPa NW 6.4 km/h 11.3 km/h 95 % 0 mm 0 W/m2
02:50 8.8 °C 8.1 °C 1032.1 hPa NW 6.4 km/h 11.3 km/h 95 % 0 mm 0 W/m2
02:55 8.8 °C 8.1 °C 1032.1 hPa NW 8 km/h 9.7 km/h 95 % 0 mm 0 W/m2
02:56 8.8 °C 8.1 °C 1032.1 hPa WNW 8 km/h 11.3 km/h 95 % 0 mm 0 W/m2
02:58 8.9 °C 8.2 °C 1032.1 hPa WNW 8 km/h 12.9 km/h 95 % 0 mm 0 W/m2
03:02 8.9 °C 8.2 °C 1032.1 hPa WNW 9.7 km/h 12.9 km/h 95 % 0 mm 0 W/m2
03:06 9 °C 8.2 °C 1032.1 hPa WNW 8 km/h 14.5 km/h 95 % 0 mm 0 W/m2
03:09 9 °C 8.2 °C 1032.1 hPa WNW 9.7 km/h 12.9 km/h 95 % 0 mm 0 W/m2
03:14 9.1 °C 8.3 °C 1032.1 hPa WNW 11.3 km/h 14.5 km/h 95 % 0 mm 0 W/m2
03:17 9.1 °C 8.3 °C 1032.1 hPa West 11.3 km/h 19.3 km/h 95 % 0 mm 0 W/m2
03:22 9.1 °C 8.3 °C 1032.1 hPa West 8 km/h 12.9 km/h 95 % 0 mm 0 W/m2
03:23 9.1 °C 8.3 °C 1032.1 hPa WNW 8 km/h 12.9 km/h 95 % 0 mm 0 W/m2
03:28 9.1 °C 8.3 °C 1032.1 hPa WNW 1.6 km/h 4.8 km/h 95 % 0 mm 0 W/m2
03:30 9.1 °C 8.3 °C 1032.1 hPa Calm   4.8 km/h 95 % 0 mm 0 W/m2
03:34 9 °C 8.2 °C 1032.4 hPa Calm   1.6 km/h 95 % 0 mm 0 W/m2
03:39 9 °C 8.2 °C 1032.4 hPa Calm   3.2 km/h 95 % 0 mm 0 W/m2
03:44 8.9 °C 8.2 °C 1032.1 hPa NW 3.2 km/h 6.4 km/h 95 % 0 mm 0 W/m2
03:49 8.8 °C 7.9 °C 1032.1 hPa WNW 1.6 km/h 4.8 km/h 94 % 0 mm 0 W/m2
03:54 8.7 °C 7.8 °C 1032.1 hPa WNW 6.4 km/h 9.7 km/h 94 % 0 mm 0 W/m2
03:55 8.7 °C 7.8 °C 1032.1 hPa WNW 6.4 km/h 8 km/h 94 % 0 mm 0 W/m2
04:00 8.7 °C 7.9 °C 1032.1 hPa West 8 km/h 14.5 km/h 95 % 0 mm 0 W/m2
04:01 8.7 °C 7.9 °C 1032.1 hPa West 6.4 km/h 12.9 km/h 95 % 0 mm 0 W/m2
04:06 8.7 °C 7.9 °C 1032.1 hPa West 6.4 km/h 9.7 km/h 95 % 0 mm 0 W/m2
04:11 8.6 °C 7.8 °C 1032.4 hPa WNW 4.8 km/h 8 km/h 95 % 0 mm 0 W/m2
04:12 8.6 °C 7.8 °C 1032.4 hPa NW 4.8 km/h 8 km/h 95 % 0 mm 0 W/m2
04:17 8.6 °C 7.8 °C 1032.4 hPa NW 3.2 km/h 8 km/h 95 % 0 mm 0 W/m2
04:22 8.7 °C 7.9 °C 1032.4 hPa NNW 8 km/h 11.3 km/h 95 % 0 mm 0 W/m2
04:23 8.7 °C 7.9 °C 1032.4 hPa NW 6.4 km/h 11.3 km/h 95 % 0 mm 0 W/m2
04:28 8.7 °C 7.9 °C 1032.4 hPa Calm   3.2 km/h 95 % 0 mm 0 W/m2
04:31 8.7 °C 7.9 °C 1032.7 hPa Calm   1.6 km/h 95 % 0 mm 0 W/m2
04:32 8.7 °C 7.9 °C 1032.7 hPa Calm   1.6 km/h 95 % 0 mm 0 W/m2
04:37 8.7 °C 7.9 °C 1032.7 hPa Calm     95 % 0 mm 0 W/m2
04:41 8.6 °C 7.8 °C 1032.7 hPa Calm     95 % 0 mm 0 W/m2
04:46 8.5 °C 7.7 °C 1032.7 hPa Calm     95 % 0 mm 0 W/m2
04:47 8.4 °C 7.7 °C 1032.7 hPa Calm     95 % 0 mm 0 W/m2
04:48 8.4 °C 7.7 °C 1032.7 hPa Calm   1.6 km/h 95 % 0 mm 0 W/m2
04:52 8.3 °C 7.6 °C 1032.7 hPa Calm     95 % 0 mm 0 W/m2
04:57 8.2 °C 7.4 °C 1032.7 hPa Calm     95 % 0 mm 0 W/m2
04:59 8.2 °C 7.4 °C 1032.7 hPa Calm     95 % 0 mm 0 W/m2
05:04 8.1 °C 7.3 °C 1032.7 hPa Calm     95 % 0 mm 0 W/m2
05:05 8.1 °C 7.3 °C 1032.7 hPa Calm     95 % 0 mm 0 W/m2
05:10 8 °C 7.2 °C 1032.7 hPa NW 1.6 km/h 3.2 km/h 95 % 0 mm 0 W/m2
05:12 8.1 °C 7.3 °C 1032.7 hPa Calm   3.2 km/h 95 % 0 mm 0 W/m2
05:17 8.1 °C 7.3 °C 1032.7 hPa NW 3.2 km/h 4.8 km/h 95 % 0 mm 0 W/m2
05:21 8.1 °C 7.3 °C 1032.7 hPa Calm   1.6 km/h 95 % 0 mm 0 W/m2
05:26 8.1 °C 7.3 °C 1032.7 hPa Calm     95 % 0 mm 0 W/m2
05:31 7.9 °C 7.2 °C 1032.7 hPa Calm     95 % 0 mm 0 W/m2
05:33 7.9 °C 7.2 °C 1032.7 hPa Calm     95 % 0 mm 0 W/m2
05:38 7.8 °C 7.1 °C 1032.7 hPa NW 1.6 km/h 3.2 km/h 95 % 0 mm 0 W/m2
05:40 7.8 °C 7.1 °C 1032.7 hPa Calm     95 % 0 mm 0 W/m2
05:45 7.8 °C 7.2 °C 1033.1 hPa Calm     96 % 0 mm 0 W/m2
05:50 7.8 °C 7.2 °C 1033.1 hPa Calm     96 % 0 mm 0 W/m2
05:51 7.8 °C 7.1 °C 1033.1 hPa Calm     95 % 0 mm 0 W/m2
05:56 7.7 °C 7.1 °C 1033.1 hPa Calm     96 % 0 mm 0 W/m2
06:01 7.8 °C 7.2 °C 1033.1 hPa Calm     96 % 0 mm 0 W/m2
06:04 7.8 °C 7.2 °C 1033.1 hPa Calm     96 % 0 mm 0 W/m2
06:05 7.8 °C 7.2 °C 1033.1 hPa Calm     96 % 0 mm 0 W/m2
06:11 7.8 °C 7.2 °C 1033.1 hPa Calm     96 % 0 mm 0 W/m2
06:14 7.9 °C 7.3 °C 1033.1 hPa Calm     96 % 0 mm 0 W/m2
06:17 7.9 °C 7.3 °C 1033.1 hPa Calm     96 % 0 mm 0 W/m2
06:29 7.9 °C 7.3 °C 1033.1 hPa NNW 1.6 km/h 3.2 km/h 96 % 0 mm 0 W/m2
06:31 7.9 °C 7.3 °C 1033.1 hPa ENE 1.6 km/h 3.2 km/h 96 % 0 mm 0 W/m2
06:36 7.9 °C 7.3 °C 1033.1 hPa ENE 1.6 km/h 3.2 km/h 96 % 0 mm 0 W/m2
06:42 7.9 °C 7.3 °C 1033.1 hPa ENE 1.6 km/h 6.4 km/h 96 % 0 mm 0 W/m2
06:44 7.9 °C 7.3 °C 1033.1 hPa ENE 4.8 km/h 6.4 km/h 96 % 0 mm 0 W/m2
06:48 7.9 °C 7.3 °C 1033.1 hPa ENE 1.6 km/h 4.8 km/h 96 % 0 mm 0 W/m2
06:50 7.9 °C 7.3 °C 1033.4 hPa Calm   1.6 km/h 96 % 0 mm 0 W/m2
06:55 7.8 °C 7.2 °C 1033.4 hPa Calm     96 % 0 mm 0 W/m2
06:59 7.8 °C 7.2 °C 1033.4 hPa NNE 1.6 km/h 3.2 km/h 96 % 0 mm 0 W/m2
07:02 7.8 °C 7.2 °C 1033.4 hPa Calm   1.6 km/h 96 % 0 mm 0 W/m2
07:07 7.9 °C 7.3 °C 1033.4 hPa NNE 1.6 km/h 4.8 km/h 96 % 0 mm 0 W/m2
07:08 7.9 °C 7.3 °C 1033.4 hPa Calm   8 km/h 96 % 0 mm 0 W/m2
07:11 7.9 °C 7.3 °C 1033.4 hPa NW 3.2 km/h 8 km/h 96 % 0 mm 0 W/m2
07:15 7.9 °C 7.3 °C 1033.4 hPa Calm     96 % 0 mm 0 W/m2
07:20 7.7 °C 7.1 °C 1033.4 hPa Calm     96 % 0 mm 0 W/m2
07:26 7.5 °C 6.9 °C 1033.4 hPa Calm     96 % 0 mm 0 W/m2
07:30 7.5 °C 6.9 °C 1033.7 hPa NW 1.6 km/h 4.8 km/h 96 % 0 mm 0 W/m2
07:31 7.5 °C 6.9 °C 1033.7 hPa Calm   3.2 km/h 96 % 0 mm 0 W/m2
07:36 7.4 °C 6.8 °C 1033.7 hPa Calm   1.6 km/h 96 % 0 mm 0 W/m2
07:41 7.3 °C 6.7 °C 1033.7 hPa Calm     96 % 0 mm 0 W/m2
07:43 7.3 °C 6.7 °C 1033.7 hPa Calm     96 % 0 mm 0 W/m2
07:48 7.2 °C 6.6 °C 1033.7 hPa Calm     96 % 0 mm 0 W/m2
07:52 7.2 °C 6.6 °C 1033.7 hPa Calm   3.2 km/h 96 % 0 mm 0 W/m2
07:58 7.2 °C 6.6 °C 1033.7 hPa Calm     96 % 0 mm 0 W/m2
08:01 7.2 °C 6.6 °C 1033.7 hPa Calm     96 % 0 mm 0 W/m2
08:06 7.3 °C 6.7 °C 1034.1 hPa Calm     96 % 0 mm 0 W/m2
08:07 7.3 °C 6.7 °C 1034.1 hPa Calm     96 % 0 mm 0 W/m2
08:12 7.4 °C 6.9 °C 1034.1 hPa Calm     97 % 0 mm 0 W/m2
08:13 7.4 °C 6.9 °C 1034.1 hPa Calm     97 % 0 mm 5 W/m2
08:18 7.4 °C 6.9 °C 1034.1 hPa Calm     97 % 0 mm 5 W/m2
08:19 7.4 °C 6.9 °C 1034.1 hPa Calm     97 % 0 mm 5 W/m2
08:24 7.4 °C 6.9 °C 1034.1 hPa Calm     97 % 0 mm 7 W/m2
08:26 7.4 °C 6.9 °C 1034.1 hPa Calm     97 % 0 mm 9 W/m2
08:31 7.3 °C 6.7 °C 1034.4 hPa Calm     96 % 0 mm 11 W/m2
08:36 7.2 °C 6.6 °C 1034.4 hPa Calm     96 % 0 mm 11 W/m2
08:42 7.2 °C 6.6 °C 1034.4 hPa Calm     96 % 0 mm 11 W/m2
08:47 7.1 °C 6.5 °C 1034.4 hPa Calm     96 % 0 mm 12 W/m2
08:50 7.2 °C 6.8 °C 1034.8 hPa Calm   1.6 km/h 97 % 0 mm 14 W/m2
08:55 7.2 °C 6.8 °C 1034.4 hPa Calm     97 % 0 mm 16 W/m2
08:58 7.2 °C 6.8 °C 1034.4 hPa Calm     97 % 0 mm 18 W/m2
09:05 7.2 °C 6.8 °C 1034.4 hPa Calm     97 % 0 mm 26 W/m2
09:11 7.2 °C 6.8 °C 1034.4 hPa Calm   1.6 km/h 97 % 0 mm 28 W/m2
09:13 7.2 °C 6.8 °C 1034.4 hPa Calm   1.6 km/h 97 % 0 mm 28 W/m2
09:17 7.2 °C 6.8 °C 1034.8 hPa Calm     97 % 0 mm 33 W/m2
09:22 7.2 °C 6.8 °C 1034.8 hPa Calm   1.6 km/h 97 % 0 mm 44 W/m2
09:24 7.2 °C 6.8 °C 1034.8 hPa Calm   1.6 km/h 97 % 0 mm 40 W/m2
09:25 7.2 °C 6.8 °C 1034.8 hPa Calm     97 % 0 mm 42 W/m2
09:31 7.3 °C 6.8 °C 1035.1 hPa Calm     97 % 0 mm 65 W/m2
09:36 7.3 °C 6.8 °C 1034.8 hPa Calm     97 % 0 mm 76 W/m2
09:38 7.3 °C 6.8 °C 1034.8 hPa Calm     97 % 0 mm 83 W/m2
09:43 7.4 °C 6.9 °C 1034.8 hPa Calm     97 % 0 mm 88 W/m2
09:47 7.5 °C 7.1 °C 1034.8 hPa Calm     97 % 0 mm 109 W/m2
09:52 7.6 °C 7.2 °C 1034.8 hPa Calm     97 % 0 mm 109 W/m2
09:53 7.6 °C 7.2 °C 1034.8 hPa Calm     97 % 0 mm 109 W/m2
09:55 7.6 °C 7.2 °C 1034.8 hPa Calm     97 % 0 mm 107 W/m2
09:59 7.8 °C 7.3 °C 1034.8 hPa Calm     97 % 0 mm 113 W/m2
10:06 8 °C 7.6 °C 1034.8 hPa Calm     97 % 0 mm 130 W/m2
10:09 8 °C 7.6 °C 1034.4 hPa Calm     97 % 0 mm 137 W/m2
10:10 8 °C 7.6 °C 1034.4 hPa Calm     97 % 0 mm 139 W/m2
10:20 8.4 °C 7.9 °C 1034.4 hPa Calm     97 % 0 mm 125 W/m2
10:25 8.7 °C 8.3 °C 1034.4 hPa Calm     97 % 0 mm 128 W/m2
10:29 8.9 °C 8.4 °C 1034.4 hPa Calm     97 % 0 mm 139 W/m2
10:31 9 °C 8.6 °C 1034.4 hPa Calm     97 % 0 mm 144 W/m2
10:35 9.1 °C 8.7 °C 1034.4 hPa Calm     97 % 0 mm 160 W/m2
10:38 9.2 °C 8.7 °C 1034.4 hPa Calm     97 % 0 mm 169 W/m2
10:41 9.4 °C 8.9 °C 1034.8 hPa Calm     97 % 0 mm 176 W/m2
10:45 9.6 °C 9.2 °C 1034.8 hPa Calm     97 % 0 mm 186 W/m2
10:47 9.7 °C 9.2 °C 1034.8 hPa Calm     97 % 0 mm 186 W/m2
10:52 9.9 °C 9.4 °C 1034.8 hPa Calm     97 % 0 mm 192 W/m2
11:02 10.4 °C 9.9 °C 1034.8 hPa Calm     97 % 0 mm 183 W/m2
11:07 10.6 °C 10 °C 1034.8 hPa Calm     96 % 0 mm 192 W/m2
11:11 10.7 °C 10.1 °C 1035.1 hPa Calm     96 % 0 mm 188 W/m2
11:16 10.7 °C 9.9 °C 1035.1 hPa NW 1.6 km/h 3.2 km/h 95 % 0 mm 192 W/m2
11:20 10.8 °C 10.1 °C 1035.1 hPa NW 1.6 km/h 3.2 km/h 95 % 0 mm 206 W/m2
11:24 10.8 °C 9.9 °C 1035.1 hPa Calm   4.8 km/h 94 % 0 mm 209 W/m2
11:29 10.9 °C 9.8 °C 1035.1 hPa Calm   1.6 km/h 93 % 0 mm 213 W/m2
11:34 10.9 °C 9.8 °C 1035.1 hPa Calm   3.2 km/h 93 % 0 mm 216 W/m2
11:35 11 °C 9.9 °C 1035.1 hPa Calm   3.2 km/h 93 % 0 mm 216 W/m2
11:40 11.2 °C 10.1 °C 1035.1 hPa Calm   3.2 km/h 93 % 0 mm 225 W/m2
11:41 11.2 °C 9.9 °C 1035.1 hPa Calm   3.2 km/h 92 % 0 mm 225 W/m2
11:46 11.3 °C 10.1 °C 1035.1 hPa Calm     92 % 0 mm 216 W/m2
11:49 11.4 °C 10 °C 1035.1 hPa Calm   1.6 km/h 91 % 0 mm 211 W/m2
11:54 11.5 °C 9.9 °C 1035.1 hPa Calm     90 % 0 mm 227 W/m2
11:55 11.5 °C 9.9 °C 1035.1 hPa NW 1.6 km/h 3.2 km/h 90 % 0 mm 223 W/m2
11:58 11.6 °C 9.8 °C 1034.8 hPa WSW 3.2 km/h 6.4 km/h 89 % 0 mm 209 W/m2
12:03 11.6 °C 9.8 °C 1034.8 hPa SW 1.6 km/h 3.2 km/h 89 % 0 mm 206 W/m2
12:06 11.6 °C 9.7 °C 1034.8 hPa SW 1.6 km/h 4.8 km/h 88 % 0 mm 206 W/m2
12:08 11.6 °C 9.7 °C 1034.8 hPa Calm   1.6 km/h 88 % 0 mm 213 W/m2
12:18 11.7 °C 9.8 °C 1034.8 hPa Calm   1.6 km/h 88 % 0 mm 221 W/m2
12:20 11.7 °C 9.8 °C 1034.8 hPa Calm   1.6 km/h 88 % 0 mm 223 W/m2
12:25 11.8 °C 9.9 °C 1034.8 hPa Calm     88 % 0 mm 218 W/m2
12:30 12.1 °C 10 °C 1034.8 hPa Calm     87 % 0 mm 211 W/m2
12:31 12.1 °C 10 °C 1034.8 hPa Calm     87 % 0 mm 206 W/m2
12:36 12.3 °C 10.2 °C 1034.8 hPa Calm   1.6 km/h 87 % 0 mm 213 W/m2
12:37 12.3 °C 10 °C 1034.8 hPa Calm     86 % 0 mm 221 W/m2
12:41 12.5 °C 10.2 °C 1034.8 hPa SW 1.6 km/h 4.8 km/h 86 % 0 mm 225 W/m2
12:46 12.6 °C 9.9 °C 1034.8 hPa SW 3.2 km/h 8 km/h 84 % 0 mm 211 W/m2
12:47 12.6 °C 9.9 °C 1034.8 hPa SW 4.8 km/h 8 km/h 84 % 0 mm 214 W/m2
12:52 12.7 °C 10.1 °C 1034.8 hPa WSW 4.8 km/h 9.7 km/h 84 % 0 mm 206 W/m2
12:53 12.7 °C 10.1 °C 1034.8 hPa WSW 4.8 km/h 8 km/h 84 % 0 mm 200 W/m2
12:58 12.7 °C 10.1 °C 1034.8 hPa West 3.2 km/h 8 km/h 84 % 0 mm 190 W/m2
13:05 12.8 °C 10 °C 1034.8 hPa SW 8 km/h 9.7 km/h 83 % 0 mm 188 W/m2
13:10 12.7 °C 10.1 °C 1034.8 hPa WSW 6.4 km/h 11.3 km/h 84 % 0 mm 206 W/m2
13:11 12.6 °C 9.8 °C 1034.8 hPa WSW 9.7 km/h 17.7 km/h 83 % 0 mm 204 W/m2
13:16 12.4 °C 9.8 °C 1034.8 hPa West 12.9 km/h 17.7 km/h 84 % 0 mm 207 W/m2
13:17 12.4 °C 9.8 °C 1034.8 hPa West 12.9 km/h 17.7 km/h 84 % 0 mm 207 W/m2
13:18 12.4 °C 9.8 °C 1034.8 hPa WNW 11.3 km/h 17.7 km/h 84 % 0 mm 214 W/m2
13:22 12.2 °C 9.8 °C 1034.8 hPa West 12.9 km/h 17.7 km/h 85 % 0 mm 216 W/m2
13:23 12.2 °C 9.8 °C 1034.8 hPa West 14.5 km/h 17.7 km/h 85 % 0 mm 221 W/m2
13:31 12.1 °C 9.8 °C 1034.8 hPa West 14.5 km/h 20.9 km/h 86 % 0 mm 195 W/m2
13:32 12.1 °C 9.8 °C 1034.8 hPa West 14.5 km/h 17.7 km/h 86 % 0 mm 209 W/m2
13:37 12 °C 9.7 °C 1034.8 hPa West 14.5 km/h 17.7 km/h 86 % 0 mm 160 W/m2
13:42 11.8 °C 9.6 °C 1034.8 hPa West 12.9 km/h 19.3 km/h 86 % 0 mm 77 W/m2
13:43 11.7 °C 9.4 °C 1034.8 hPa West 14.5 km/h 19.3 km/h 86 % 0 mm 81 W/m2
13:45 11.6 °C 9.5 °C 1034.8 hPa West 11.3 km/h 16.1 km/h 87 % 0 mm 171 W/m2
13:52 11.6 °C 9.5 °C 1034.8 hPa West 8 km/h 16.1 km/h 87 % 0 mm 81 W/m2
13:57 11.3 °C 9.2 °C 1034.8 hPa West 11.3 km/h 16.1 km/h 87 % 0 mm 49 W/m2
14:02 11.2 °C 9.3 °C 1034.8 hPa WSW 8 km/h 11.3 km/h 88 % 0 mm 40 W/m2
14:03 11.1 °C 9.2 °C 1034.8 hPa WSW 8 km/h 11.3 km/h 88 % 0 mm 39 W/m2
14:06 11.1 °C 9.2 °C 1034.8 hPa WSW 8 km/h 12.9 km/h 88 % 0 mm 33 W/m2
14:08 11 °C 9.3 °C 1034.8 hPa West 8 km/h 11.3 km/h 89 % 0 mm 39 W/m2
14:11 10.9 °C 9.2 °C 1034.8 hPa West 6.4 km/h 11.3 km/h 89 % 0 mm 44 W/m2
14:14 10.9 °C 9.2 °C 1034.8 hPa West 8 km/h 11.3 km/h 89 % 0 mm 42 W/m2
14:19 10.8 °C 9.1 °C 1034.8 hPa West 8 km/h 12.9 km/h 89 % 0 mm 37 W/m2
14:23 10.8 °C 9.1 °C 1034.8 hPa WSW 9.7 km/h 12.9 km/h 89 % 0 mm 30 W/m2
14:25 10.7 °C 8.9 °C 1034.8 hPa WSW 8 km/h 11.3 km/h 89 % 0 mm 26 W/m2
14:30 10.7 °C 8.9 °C 1034.8 hPa WSW 6.4 km/h 11.3 km/h 89 % 0 mm 25 W/m2
14:34 10.7 °C 8.9 °C 1034.8 hPa West 8 km/h 12.9 km/h 89 % 0 mm 23 W/m2
14:38 10.6 °C 8.9 °C 1034.8 hPa WSW 6.4 km/h 11.3 km/h 89 % 0 mm 19 W/m2
14:40 10.6 °C 9 °C 1034.8 hPa West 4.8 km/h 11.3 km/h 90 % 0 mm 18 W/m2
14:45 10.6 °C 9 °C 1034.8 hPa West 9.7 km/h 17.7 km/h 90 % 0 mm 19 W/m2
14:48 10.6 °C 9 °C 1034.8 hPa West 11.3 km/h 14.5 km/h 90 % 0 mm 19 W/m2
14:53 10.6 °C 9 °C 1034.8 hPa West 8 km/h 12.9 km/h 90 % 0 mm 18 W/m2
14:55 10.6 °C 9 °C 1034.8 hPa West 8 km/h 11.3 km/h 90 % 0 mm 16 W/m2
15:01 10.5 °C 8.9 °C 1034.8 hPa West 6.4 km/h 9.7 km/h 90 % 0 mm 12 W/m2
15:06 10.5 °C 8.9 °C 1034.8 hPa WSW 4.8 km/h 9.7 km/h 90 % 0 mm 11 W/m2
15:11 10.5 °C 8.9 °C 1034.8 hPa WSW 4.8 km/h 9.7 km/h 90 % 0 mm 11 W/m2
15:14 10.4 °C 8.8 °C 1034.8 hPa WSW 4.8 km/h 9.7 km/h 90 % 0 mm 9 W/m2
15:19 10.4 °C 8.8 °C 1034.8 hPa WSW 4.8 km/h 9.7 km/h 90 % 0 mm 9 W/m2
15:21 10.4 °C 8.8 °C 1034.8 hPa WSW 4.8 km/h 8 km/h 90 % 0 mm 9 W/m2
15:24 10.4 °C 9 °C 1034.8 hPa West 1.6 km/h 6.4 km/h 91 % 0 mm 7 W/m2
15:29 10.4 °C 9 °C 1034.8 hPa West 3.2 km/h 8 km/h 91 % 0 mm 7 W/m2
15:30 10.4 °C 9 °C 1034.8 hPa West 3.2 km/h 8 km/h 91 % 0 mm 7 W/m2
15:34 10.4 °C 9 °C 1034.8 hPa West 3.2 km/h 6.4 km/h 91 % 0 mm 5 W/m2
15:35 10.4 °C 9 °C 1034.8 hPa West 3.2 km/h 6.4 km/h 91 % 0 mm 5 W/m2
15:40 10.4 °C 9 °C 1035.1 hPa West 8 km/h 9.7 km/h 91 % 0 mm 0 W/m2
15:45 10.3 °C 8.9 °C 1035.1 hPa WSW 3.2 km/h 8 km/h 91 % 0 mm 0 W/m2
15:47 10.3 °C 8.9 °C 1035.1 hPa West 8 km/h 14.5 km/h 91 % 0 mm 0 W/m2
15:56 10.3 °C 8.9 °C 1035.1 hPa West 8 km/h 11.3 km/h 91 % 0 mm 0 W/m2
16:01 10.3 °C 8.9 °C 1035.1 hPa West 9.7 km/h 12.9 km/h 91 % 0 mm 0 W/m2
16:06 10.3 °C 8.7 °C 1035.1 hPa West 11.3 km/h 17.7 km/h 90 % 0 mm 0 W/m2
16:11 10.3 °C 8.7 °C 1035.1 hPa West 12.9 km/h 17.7 km/h 90 % 0 mm 0 W/m2
16:12 10.3 °C 8.7 °C 1035.1 hPa West 12.9 km/h 17.7 km/h 90 % 0 mm 0 W/m2
16:15 10.2 °C 8.6 °C 1035.1 hPa WNW 8 km/h 12.9 km/h 90 % 0 mm 0 W/m2
16:20 10.2 °C 8.6 °C 1034.8 hPa West 3.2 km/h 8 km/h 90 % 0 mm 0 W/m2
16:25 10.2 °C 8.6 °C 1035.1 hPa WNW 4.8 km/h 12.9 km/h 90 % 0 mm 0 W/m2
16:28 10.2 °C 8.6 °C 1035.1 hPa West 3.2 km/h 9.7 km/h 90 % 0 mm 0 W/m2
16:31 10.2 °C 8.6 °C 1035.1 hPa WNW 6.4 km/h 9.7 km/h 90 % 0 mm 0 W/m2
16:34 10.2 °C 8.6 °C 1035.1 hPa West 4.8 km/h 11.3 km/h 90 % 0 mm 0 W/m2
16:38 10.2 °C 8.6 °C 1034.8 hPa West 6.4 km/h 9.7 km/h 90 % 0 mm 0 W/m2
16:40 10.2 °C 8.6 °C 1034.8 hPa West 8 km/h 11.3 km/h 90 % 0 mm 0 W/m2
16:43 10.1 °C 8.6 °C 1034.8 hPa WSW 6.4 km/h 11.3 km/h 90 % 0 mm 0 W/m2
16:48 10.1 °C 8.6 °C 1034.8 hPa WSW 8 km/h 11.3 km/h 90 % 0 mm 0 W/m2
16:51 10.1 °C 8.6 °C 1034.8 hPa WSW 6.4 km/h 11.3 km/h 90 % 0 mm 0 W/m2
16:55 10.1 °C 8.6 °C 1034.8 hPa West 6.4 km/h 11.3 km/h 90 % 0 mm 0 W/m2
16:56 10.1 °C 8.6 °C 1034.8 hPa West 8 km/h 11.3 km/h 90 % 0 mm 0 W/m2
17:01 10.1 °C 8.6 °C 1034.8 hPa WNW 3.2 km/h 8 km/h 90 % 0 mm 0 W/m2
17:02 10.1 °C 8.4 °C 1034.8 hPa WNW 3.2 km/h 8 km/h 89 % 0 mm 0 W/m2
17:05 10.1 °C 8.4 °C 1034.8 hPa WNW 1.6 km/h 4.8 km/h 89 % 0 mm 0 W/m2
17:10 9.9 °C 8.2 °C 1034.8 hPa Calm     89 % 0 mm 0 W/m2
17:11 9.9 °C 8.2 °C 1034.8 hPa Calm     89 % 0 mm 0 W/m2
17:12 9.9 °C 8.2 °C 1034.8 hPa Calm     89 % 0 mm 0 W/m2
17:18 9.8 °C 8.1 °C 1034.8 hPa WNW 1.6 km/h 3.2 km/h 89 % 0 mm 0 W/m2
17:23 9.6 °C 7.9 °C 1034.8 hPa Calm     89 % 0 mm 0 W/m2
17:25 9.6 °C 7.9 °C 1034.8 hPa Calm     89 % 0 mm 0 W/m2
17:30 9.4 °C 7.7 °C 1034.8 hPa Calm     89 % 0 mm 0 W/m2
17:38 9.1 °C 7.4 °C 1034.8 hPa Calm     89 % 0 mm 0 W/m2
17:42 9 °C 7.4 °C 1035.1 hPa Calm   1.6 km/h 90 % 0 mm 0 W/m2
17:45 8.9 °C 7.3 °C 1035.1 hPa Calm   3.2 km/h 90 % 0 mm 0 W/m2
17:49 8.8 °C 7.2 °C 1035.1 hPa WNW 1.6 km/h 6.4 km/h 90 % 0 mm 0 W/m2
17:50 8.7 °C 7.2 °C 1035.1 hPa Calm   3.2 km/h 90 % 0 mm 0 W/m2
17:55 8.6 °C 7.1 °C 1035.1 hPa Calm   1.6 km/h 90 % 0 mm 0 W/m2
18:00 8.4 °C 6.8 °C 1035.1 hPa Calm   3.2 km/h 90 % 0 mm 0 W/m2
18:02 8.3 °C 6.8 °C 1035.1 hPa WNW 3.2 km/h 8 km/h 90 % 0 mm 0 W/m2
18:07 8.3 °C 6.9 °C 1035.1 hPa West 1.6 km/h 6.4 km/h 91 % 0 mm 0 W/m2
18:08 8.2 °C 6.8 °C 1035.1 hPa West 1.6 km/h 6.4 km/h 91 % 0 mm 0 W/m2
18:13 8.1 °C 6.7 °C 1035.1 hPa Calm     91 % 0 mm 0 W/m2
18:18 8 °C 6.6 °C 1035.1 hPa Calm     91 % 0 mm 0 W/m2
18:23 7.8 °C 6.4 °C 1035.1 hPa Calm   3.2 km/h 91 % 0 mm 0 W/m2
18:27 7.7 °C 6.5 °C 1035.1 hPa WNW 3.2 km/h 6.4 km/h 92 % 0 mm 0 W/m2
18:29 7.7 °C 6.5 °C 1035.1 hPa WNW 3.2 km/h 6.4 km/h 92 % 0 mm 0 W/m2
18:34 7.7 °C 6.5 °C 1035.1 hPa West 6.4 km/h 9.7 km/h 92 % 0 mm 0 W/m2
18:35 7.7 °C 6.5 °C 1035.1 hPa West 6.4 km/h 9.7 km/h 92 % 0 mm 0 W/m2
18:36 7.7 °C 6.7 °C 1035.1 hPa West 6.4 km/h 9.7 km/h 93 % 0 mm 0 W/m2
18:41 7.8 °C 6.7 °C 1035.1 hPa WNW 3.2 km/h 6.4 km/h 93 % 0 mm 0 W/m2
18:46 7.8 °C 6.7 °C 1035.1 hPa WNW 1.6 km/h 4.8 km/h 93 % 0 mm 0 W/m2
18:52 7.8 °C 6.7 °C 1035.1 hPa Calm   1.6 km/h 93 % 0 mm 0 W/m2
18:54 7.7 °C 6.7 °C 1035.1 hPa WNW 4.8 km/h 9.7 km/h 93 % 0 mm 0 W/m2
18:59 7.7 °C 6.7 °C 1035.1 hPa WNW 3.2 km/h 11.3 km/h 93 % 0 mm 0 W/m2
19:01 7.7 °C 6.7 °C 1035.1 hPa WNW 4.8 km/h 11.3 km/h 93 % 0 mm 0 W/m2
19:03 7.7 °C 6.7 °C 1035.1 hPa WNW 3.2 km/h 8 km/h 93 % 0 mm 0 W/m2
19:08 7.7 °C 6.7 °C 1035.1 hPa WNW 1.6 km/h 3.2 km/h 93 % 0 mm 0 W/m2
19:13 7.6 °C 6.6 °C 1035.1 hPa West 1.6 km/h 8 km/h 93 % 0 mm 0 W/m2
19:22 7.7 °C 6.8 °C 1035.1 hPa West 4.8 km/h 11.3 km/h 94 % 0 mm 0 W/m2
19:27 8.3 °C 7.6 °C 1035.1 hPa West 12.9 km/h 22.5 km/h 95 % 0 mm 0 W/m2
19:28 8.4 °C 7.7 °C 1035.1 hPa West 11.3 km/h 19.3 km/h 95 % 0 mm 0 W/m2
19:32 8.8 °C 8.1 °C 1035.1 hPa West 12.9 km/h 20.9 km/h 95 % 0 mm 0 W/m2
19:37 9.1 °C 8.3 °C 1035.1 hPa West 12.9 km/h 19.3 km/h 95 % 0 mm 0 W/m2
19:39 9.1 °C 8.3 °C 1035.1 hPa WSW 11.3 km/h 16.1 km/h 95 % 0 mm 0 W/m2
19:44 9.2 °C 8.3 °C 1035.1 hPa West 16.1 km/h 22.5 km/h 94 % 0 mm 0 W/m2
19:45 9.2 °C 8.3 °C 1035.1 hPa West 17.7 km/h 22.5 km/h 94 % 0 mm 0 W/m2
19:47 9.3 °C 8.4 °C 1035.1 hPa West 14.5 km/h 22.5 km/h 94 % 0 mm 0 W/m2
19:52 9.3 °C 8.2 °C 1035.1 hPa West 9.7 km/h 12.9 km/h 93 % 0 mm 0 W/m2
19:53 9.3 °C 8.2 °C 1035.1 hPa WSW 9.7 km/h 16.1 km/h 93 % 0 mm 0 W/m2
19:59 9.3 °C 8.2 °C 1035.1 hPa WSW 16.1 km/h 24.1 km/h 93 % 0 mm 0 W/m2
20:04 9.3 °C 8.2 °C 1035.1 hPa West 11.3 km/h 17.7 km/h 93 % 0 mm 0 W/m2
20:05 9.4 °C 8.3 °C 1035.1 hPa WSW 11.3 km/h 17.7 km/h 93 % 0 mm 0 W/m2
20:10 9.4 °C 8.3 °C 1035.1 hPa WSW 12.9 km/h 19.3 km/h 93 % 0 mm 0 W/m2
20:14 9.4 °C 8.3 °C 1035.1 hPa West 14.5 km/h 22.5 km/h 93 % 0 mm 0 W/m2
20:19 9.4 °C 8.3 °C 1034.8 hPa WSW 8 km/h 16.1 km/h 93 % 0 mm 0 W/m2
20:22 9.4 °C 8.3 °C 1034.8 hPa WSW 6.4 km/h 14.5 km/h 93 % 0 mm 0 W/m2
20:27 9.3 °C 8.2 °C 1034.8 hPa West 12.9 km/h 19.3 km/h 93 % 0 mm 0 W/m2
20:30 9.3 °C 8.2 °C 1034.8 hPa West 9.7 km/h 14.5 km/h 93 % 0 mm 0 W/m2
20:33 9.3 °C 8.2 °C 1034.8 hPa WSW 9.7 km/h 14.5 km/h 93 % 0 mm 0 W/m2
20:38 9.3 °C 8.2 °C 1034.8 hPa West 6.4 km/h 11.3 km/h 93 % 0 mm 0 W/m2
20:43 9.3 °C 8.2 °C 1034.8 hPa West 9.7 km/h 12.9 km/h 93 % 0 mm 0 W/m2
20:44 9.3 °C 8.2 °C 1034.8 hPa West 8 km/h 12.9 km/h 93 % 0 mm 0 W/m2
20:49 9.3 °C 8.2 °C 1035.1 hPa West 8 km/h 12.9 km/h 93 % 0 mm 0 W/m2
20:51 9.3 °C 8.2 °C 1034.8 hPa West 8 km/h 11.3 km/h 93 % 0 mm 0 W/m2
20:56 9.3 °C 8.2 °C 1034.8 hPa WNW 9.7 km/h 17.7 km/h 93 % 0 mm 0 W/m2
20:57 9.2 °C 8.1 °C 1034.8 hPa West 12.9 km/h 25.7 km/h 93 % 0 mm 0 W/m2
21:02 9.2 °C 8.1 °C 1034.8 hPa WNW 16.1 km/h 22.5 km/h 93 % 0 mm 0 W/m2
21:07 9.1 °C 8 °C 1034.8 hPa West 19.3 km/h 25.7 km/h 93 % 0 mm 0 W/m2
21:08 9.1 °C 8 °C 1034.8 hPa West 17.7 km/h 24.1 km/h 93 % 0 mm 0 W/m2
21:14 9.1 °C 8 °C 1034.8 hPa West 12.9 km/h 19.3 km/h 93 % 0 mm 0 W/m2
21:15 9.1 °C 8 °C 1034.8 hPa West 16.1 km/h 29 km/h 93 % 0 mm 0 W/m2
21:20 9 °C 7.9 °C 1034.8 hPa West 12.9 km/h 20.9 km/h 93 % 0 mm 0 W/m2
21:23 9 °C 7.9 °C 1034.8 hPa West 12.9 km/h 20.9 km/h 93 % 0 mm 0 W/m2
21:28 8.9 °C 7.8 °C 1034.4 hPa WSW 16.1 km/h 20.9 km/h 93 % 0 mm 0 W/m2
21:32 8.9 °C 7.8 °C 1034.4 hPa West 12.9 km/h 20.9 km/h 93 % 0 mm 0 W/m2
21:33 8.9 °C 7.8 °C 1034.4 hPa West 14.5 km/h 20.9 km/h 93 % 0 mm 0 W/m2
21:41 8.8 °C 7.7 °C 1034.4 hPa West 12.9 km/h 19.3 km/h 93 % 0 mm 0 W/m2
21:46 8.8 °C 7.7 °C 1034.4 hPa West 14.5 km/h 20.9 km/h 93 % 0 mm 0 W/m2
21:47 8.7 °C 7.6 °C 1034.4 hPa West 14.5 km/h 20.9 km/h 93 % 0 mm 0 W/m2
21:51 8.7 °C 7.6 °C 1034.4 hPa West 16.1 km/h 20.9 km/h 93 % 0 mm 0 W/m2
21:53 8.7 °C 7.6 °C 1034.4 hPa West 12.9 km/h 19.3 km/h 93 % 0 mm 0 W/m2
22:00 8.6 °C 7.6 °C 1034.4 hPa West 14.5 km/h 20.9 km/h 93 % 0 mm 0 W/m2
22:05 8.6 °C 7.6 °C 1034.4 hPa WSW 22.5 km/h 32.2 km/h 93 % 0 mm 0 W/m2
22:07 8.6 °C 7.6 °C 1034.4 hPa WSW 19.3 km/h 32.2 km/h 93 % 0 mm 0 W/m2
22:14 8.6 °C 7.6 °C 1034.4 hPa West 12.9 km/h 20.9 km/h 93 % 0 mm 0 W/m2
22:19 8.6 °C 7.6 °C 1034.4 hPa WSW 14.5 km/h 19.3 km/h 93 % 0 mm 0 W/m2
22:21 8.6 °C 7.6 °C 1034.1 hPa WSW 11.3 km/h 17.7 km/h 93 % 0 mm 0 W/m2
22:22 8.6 °C 7.6 °C 1034.4 hPa WSW 11.3 km/h 17.7 km/h 93 % 0 mm 0 W/m2
22:27 8.6 °C 7.6 °C 1034.4 hPa WSW 11.3 km/h 17.7 km/h 93 % 0 mm 0 W/m2
22:32 8.6 °C 7.6 °C 1034.1 hPa West 12.9 km/h 17.7 km/h 93 % 0 mm 0 W/m2
22:33 8.6 °C 7.6 °C 1034.1 hPa WSW 12.9 km/h 17.7 km/h 93 % 0 mm 0 W/m2
22:34 8.6 °C 7.6 °C 1034.1 hPa WSW 14.5 km/h 17.7 km/h 93 % 0 mm 0 W/m2
22:39 8.6 °C 7.4 °C 1034.1 hPa West 12.9 km/h 19.3 km/h 92 % 0 mm 0 W/m2
22:46 8.6 °C 7.4 °C 1034.1 hPa West 11.3 km/h 17.7 km/h 92 % 0 mm 0 W/m2
22:51 8.5 °C 7.3 °C 1034.1 hPa West 9.7 km/h 16.1 km/h 92 % 0 mm 0 W/m2
22:52 8.5 °C 7.3 °C 1034.1 hPa West 8 km/h 12.9 km/h 92 % 0 mm 0 W/m2
22:58 8.4 °C 7.2 °C 1034.1 hPa West 8 km/h 12.9 km/h 92 % 0 mm 0 W/m2
23:02 8.3 °C 7.1 °C 1033.7 hPa West 4.8 km/h 9.7 km/h 92 % 0 mm 0 W/m2
23:03 8.3 °C 7.1 °C 1033.7 hPa West 3.2 km/h 9.7 km/h 92 % 0 mm 0 W/m2
23:08 8.2 °C 7 °C 1033.7 hPa WNW 9.7 km/h 14.5 km/h 92 % 0 mm 0 W/m2
23:11 8.2 °C 7.1 °C 1033.7 hPa WNW 11.3 km/h 16.1 km/h 93 % 0 mm 0 W/m2
23:16 8.2 °C 7.1 °C 1033.7 hPa WNW 11.3 km/h 14.5 km/h 93 % 0 mm 0 W/m2
23:18 8.2 °C 7.1 °C 1033.7 hPa WNW 11.3 km/h 14.5 km/h 93 % 0 mm 0 W/m2
23:23 8.2 °C 7.1 °C 1033.7 hPa WNW 8 km/h 12.9 km/h 93 % 0 mm 0 W/m2
23:27 8.2 °C 7.1 °C 1033.7 hPa West 4.8 km/h 11.3 km/h 93 % 0 mm 0 W/m2
23:32 8.1 °C 7.1 °C 1033.7 hPa West 11.3 km/h 19.3 km/h 93 % 0 mm 0 W/m2
23:33 8.1 °C 7.1 °C 1033.7 hPa West 11.3 km/h 19.3 km/h 93 % 0 mm 0 W/m2
23:38 8.2 °C 7.1 °C 1033.7 hPa West 9.7 km/h 16.1 km/h 93 % 0 mm 0 W/m2
23:39 8.2 °C 7.1 °C 1033.7 hPa West 9.7 km/h 16.1 km/h 93 % 0 mm 0 W/m2
23:44 8.3 °C 7.2 °C 1033.7 hPa West 8 km/h 12.9 km/h 93 % 0 mm 0 W/m2
23:48 8.3 °C 7.2 °C 1033.4 hPa West 9.7 km/h 12.9 km/h 93 % 0 mm 0 W/m2
23:53 8.3 °C 7.2 °C 1033.4 hPa WNW 8 km/h 9.7 km/h 93 % 0 mm 0 W/m2
23:54 8.3 °C 7.2 °C 1033.4 hPa WNW 8 km/h 12.9 km/h 93 % 0 mm 0 W/m2
23:59 8.3 °C 7.2 °C 1033.4 hPa WNW 9.7 km/h 12.9 km/h 93 % 0 mm 0 W/m2
Delerius-Weather
Compliments of Weather Underground - 3 mb

Data updates at regular intervals.